sensor_id;sensor_type;location;lat;lon;timestamp;P1;durP1;ratioP1;P2;durP2;ratioP2
51525;SDS011;37611;51.794;21.590;2023-06-22T00:02:29;31.30;;;26.70;;
51525;SDS011;37611;51.794;21.590;2023-06-22T00:06:30;28.60;;;25.50;;
51525;SDS011;37611;51.794;21.590;2023-06-22T00:10:32;29.50;;;26.40;;
51525;SDS011;37611;51.794;21.590;2023-06-22T00:14:34;30.40;;;27.20;;
51525;SDS011;37611;51.794;21.590;2023-06-22T00:18:36;31.30;;;26.50;;
51525;SDS011;37611;51.794;21.590;2023-06-22T00:22:38;28.30;;;24.80;;
51525;SDS011;37611;51.794;21.590;2023-06-22T00:26:40;37.10;;;28.30;;
51525;SDS011;37611;51.794;21.590;2023-06-22T00:30:42;29.10;;;25.60;;
51525;SDS011;37611;51.794;21.590;2023-06-22T00:34:44;31.10;;;26.70;;
51525;SDS011;37611;51.794;21.590;2023-06-22T00:38:46;32.80;;;26.90;;
51525;SDS011;37611;51.794;21.590;2023-06-22T00:42:48;29.40;;;25.80;;
51525;SDS011;37611;51.794;21.590;2023-06-22T00:46:49;29.40;;;26.10;;
51525;SDS011;37611;51.794;21.590;2023-06-22T00:50:51;28.90;;;26.00;;
51525;SDS011;37611;51.794;21.590;2023-06-22T00:54:57;29.20;;;26.20;;
51525;SDS011;37611;51.794;21.590;2023-06-22T00:58:59;27.50;;;25.00;;
51525;SDS011;37611;51.794;21.590;2023-06-22T01:03:04;29.30;;;26.50;;
51525;SDS011;37611;51.794;21.590;2023-06-22T01:11:36;28.70;;;25.90;;
51525;SDS011;37611;51.794;21.590;2023-06-22T01:15:45;29.30;;;26.30;;
51525;SDS011;37611;51.794;21.590;2023-06-22T01:19:51;27.90;;;25.10;;
51525;SDS011;37611;51.794;21.590;2023-06-22T01:32:47;28.90;;;26.00;;
51525;SDS011;37611;51.794;21.590;2023-06-22T01:36:51;28.40;;;25.60;;
51525;SDS011;37611;51.794;21.590;2023-06-22T01:40:54;29.10;;;26.30;;
51525;SDS011;37611;51.794;21.590;2023-06-22T01:44:57;30.50;;;27.40;;
51525;SDS011;37611;51.794;21.590;2023-06-22T01:49:01;27.90;;;25.20;;
51525;SDS011;37611;51.794;21.590;2023-06-22T01:53:05;28.00;;;25.40;;
51525;SDS011;37611;51.794;21.590;2023-06-22T01:57:08;28.40;;;25.40;;
51525;SDS011;37611;51.794;21.590;2023-06-22T02:01:12;27.70;;;24.70;;
51525;SDS011;37611;51.794;21.590;2023-06-22T02:05:17;27.20;;;24.60;;
51525;SDS011;37611;51.794;21.590;2023-06-22T02:09:20;29.10;;;26.50;;
51525;SDS011;37611;51.794;21.590;2023-06-22T02:13:25;27.20;;;24.70;;
51525;SDS011;37611;51.794;21.590;2023-06-22T02:17:27;24.80;;;22.40;;
51525;SDS011;37611;51.794;21.590;2023-06-22T02:21:29;28.30;;;25.60;;
51525;SDS011;37611;51.794;21.590;2023-06-22T02:25:33;26.60;;;24.10;;
51525;SDS011;37611;51.794;21.590;2023-06-22T02:29:36;27.20;;;24.70;;
51525;SDS011;37611;51.794;21.590;2023-06-22T02:33:38;30.60;;;27.80;;
51525;SDS011;37611;51.794;21.590;2023-06-22T02:37:40;28.20;;;25.60;;
51525;SDS011;37611;51.794;21.590;2023-06-22T02:41:43;28.40;;;25.70;;
51525;SDS011;37611;51.794;21.590;2023-06-22T02:45:44;27.80;;;25.30;;
51525;SDS011;37611;51.794;21.590;2023-06-22T02:49:46;27.50;;;25.10;;
51525;SDS011;37611;51.794;21.590;2023-06-22T02:53:48;28.40;;;25.90;;
51525;SDS011;37611;51.794;21.590;2023-06-22T02:57:53;26.10;;;23.80;;
51525;SDS011;37611;51.794;21.590;2023-06-22T03:01:55;26.90;;;24.60;;
51525;SDS011;37611;51.794;21.590;2023-06-22T03:05:57;26.00;;;23.50;;
51525;SDS011;37611;51.794;21.590;2023-06-22T03:09:59;25.90;;;23.40;;
51525;SDS011;37611;51.794;21.590;2023-06-22T03:14:01;24.90;;;22.70;;
51525;SDS011;37611;51.794;21.590;2023-06-22T03:18:03;25.90;;;23.40;;
51525;SDS011;37611;51.794;21.590;2023-06-22T03:22:05;25.40;;;23.10;;
51525;SDS011;37611;51.794;21.590;2023-06-22T03:26:08;24.20;;;22.10;;
51525;SDS011;37611;51.794;21.590;2023-06-22T03:30:10;24.70;;;22.20;;
51525;SDS011;37611;51.794;21.590;2023-06-22T03:34:13;25.50;;;22.90;;
51525;SDS011;37611;51.794;21.590;2023-06-22T03:38:16;25.30;;;22.90;;
51525;SDS011;37611;51.794;21.590;2023-06-22T03:42:18;25.30;;;22.90;;
51525;SDS011;37611;51.794;21.590;2023-06-22T03:46:20;24.70;;;22.40;;
51525;SDS011;37611;51.794;21.590;2023-06-22T03:50:22;24.20;;;21.80;;
51525;SDS011;37611;51.794;21.590;2023-06-22T03:54:24;24.00;;;21.80;;
51525;SDS011;37611;51.794;21.590;2023-06-22T03:58:26;26.10;;;23.50;;
51525;SDS011;37611;51.794;21.590;2023-06-22T04:02:27;24.80;;;22.50;;
51525;SDS011;37611;51.794;21.590;2023-06-22T04:06:29;25.70;;;23.30;;
51525;SDS011;37611;51.794;21.590;2023-06-22T04:10:32;25.60;;;23.30;;
51525;SDS011;37611;51.794;21.590;2023-06-22T04:14:34;26.80;;;24.20;;
51525;SDS011;37611;51.794;21.590;2023-06-22T04:18:36;25.20;;;23.00;;
51525;SDS011;37611;51.794;21.590;2023-06-22T04:22:38;26.20;;;23.60;;
51525;SDS011;37611;51.794;21.590;2023-06-22T04:26:40;26.00;;;23.80;;
51525;SDS011;37611;51.794;21.590;2023-06-22T04:30:43;28.80;;;26.20;;
51525;SDS011;37611;51.794;21.590;2023-06-22T04:34:48;26.60;;;24.30;;
51525;SDS011;37611;51.794;21.590;2023-06-22T04:38:50;29.10;;;26.30;;
51525;SDS011;37611;51.794;21.590;2023-06-22T04:42:54;30.70;;;28.00;;
51525;SDS011;37611;51.794;21.590;2023-06-22T04:47:00;30.80;;;27.90;;
51525;SDS011;37611;51.794;21.590;2023-06-22T04:51:05;36.40;;;32.80;;
51525;SDS011;37611;51.794;21.590;2023-06-22T04:55:07;39.70;;;33.50;;
51525;SDS011;37611;51.794;21.590;2023-06-22T04:59:10;35.20;;;31.80;;
51525;SDS011;37611;51.794;21.590;2023-06-22T05:03:14;36.90;;;33.20;;
51525;SDS011;37611;51.794;21.590;2023-06-22T05:07:19;38.20;;;34.60;;
51525;SDS011;37611;51.794;21.590;2023-06-22T05:11:21;38.80;;;35.20;;
51525;SDS011;37611;51.794;21.590;2023-06-22T05:15:23;38.80;;;34.80;;
51525;SDS011;37611;51.794;21.590;2023-06-22T05:19:29;37.80;;;34.20;;
51525;SDS011;37611;51.794;21.590;2023-06-22T05:23:34;38.70;;;35.20;;
51525;SDS011;37611;51.794;21.590;2023-06-22T05:32:20;40.80;;;36.70;;
51525;SDS011;37611;51.794;21.590;2023-06-22T05:36:25;41.10;;;37.10;;
51525;SDS011;37611;51.794;21.590;2023-06-22T05:40:51;43.30;;;39.10;;
51525;SDS011;37611;51.794;21.590;2023-06-22T05:45:39;43.60;;;39.50;;
51525;SDS011;37611;51.794;21.590;2023-06-22T05:50:00;44.20;;;39.90;;
51525;SDS011;37611;51.794;21.590;2023-06-22T05:54:32;44.20;;;39.80;;
51525;SDS011;37611;51.794;21.590;2023-06-22T05:58:45;42.10;;;38.10;;
51525;SDS011;37611;51.794;21.590;2023-06-22T06:08:03;46.60;;;42.10;;
51525;SDS011;37611;51.794;21.590;2023-06-22T06:12:09;47.90;;;43.10;;
51525;SDS011;37611;51.794;21.590;2023-06-22T06:16:14;49.50;;;44.70;;
51525;SDS011;37611;51.794;21.590;2023-06-22T06:20:20;50.20;;;45.30;;
51525;SDS011;37611;51.794;21.590;2023-06-22T06:24:29;50.80;;;45.80;;
51525;SDS011;37611;51.794;21.590;2023-06-22T06:28:31;51.50;;;46.50;;
51525;SDS011;37611;51.794;21.590;2023-06-22T07:11:30;41.70;;;37.70;;
51525;SDS011;37611;51.794;21.590;2023-06-22T07:20:41;41.30;;;37.10;;
51525;SDS011;37611;51.794;21.590;2023-06-22T07:30:17;39.30;;;35.40;;
51525;SDS011;37611;51.794;21.590;2023-06-22T07:44:26;34.70;;;31.40;;
51525;SDS011;37611;51.794;21.590;2023-06-22T08:02:25;28.60;;;26.20;;
51525;SDS011;37611;51.794;21.590;2023-06-22T08:07:28;28.20;;;25.60;;
51525;SDS011;37611;51.794;21.590;2023-06-22T08:11:30;28.60;;;26.10;;
51525;SDS011;37611;51.794;21.590;2023-06-22T08:16:23;27.90;;;25.40;;
51525;SDS011;37611;51.794;21.590;2023-06-22T08:20:33;28.10;;;25.60;;
51525;SDS011;37611;51.794;21.590;2023-06-22T08:24:37;27.80;;;25.20;;
51525;SDS011;37611;51.794;21.590;2023-06-22T08:29:11;24.50;;;22.40;;
51525;SDS011;37611;51.794;21.590;2023-06-22T08:33:13;24.20;;;22.10;;
51525;SDS011;37611;51.794;21.590;2023-06-22T08:37:56;23.60;;;21.60;;
51525;SDS011;37611;51.794;21.590;2023-06-22T08:41:58;23.80;;;21.60;;
51525;SDS011;37611;51.794;21.590;2023-06-22T08:46:21;21.80;;;19.90;;
51525;SDS011;37611;51.794;21.590;2023-06-22T08:50:34;21.50;;;19.60;;
51525;SDS011;37611;51.794;21.590;2023-06-22T08:54:36;19.50;;;17.90;;
51525;SDS011;37611;51.794;21.590;2023-06-22T08:58:59;17.60;;;16.00;;
51525;SDS011;37611;51.794;21.590;2023-06-22T09:03:23;17.10;;;15.70;;
51525;SDS011;37611;51.794;21.590;2023-06-22T09:07:38;16.50;;;15.00;;
51525;SDS011;37611;51.794;21.590;2023-06-22T09:11:40;15.50;;;14.00;;
51525;SDS011;37611;51.794;21.590;2023-06-22T09:15:42;15.20;;;14.10;;
51525;SDS011;37611;51.794;21.590;2023-06-22T09:20:16;15.10;;;13.70;;
51525;SDS011;37611;51.794;21.590;2023-06-22T09:24:18;15.60;;;14.10;;
51525;SDS011;37611;51.794;21.590;2023-06-22T09:28:22;15.60;;;14.00;;
51525;SDS011;37611;51.794;21.590;2023-06-22T09:32:24;14.40;;;13.10;;
51525;SDS011;37611;51.794;21.590;2023-06-22T09:36:27;13.60;;;12.20;;
51525;SDS011;37611;51.794;21.590;2023-06-22T09:40:29;12.50;;;11.30;;
51525;SDS011;37611;51.794;21.590;2023-06-22T09:44:31;12.50;;;11.30;;
51525;SDS011;37611;51.794;21.590;2023-06-22T09:48:33;11.80;;;10.70;;
51525;SDS011;37611;51.794;21.590;2023-06-22T09:52:35;11.40;;;10.30;;
51525;SDS011;37611;51.794;21.590;2023-06-22T09:56:36;11.40;;;8.50;;
51525;SDS011;37611;51.794;21.590;2023-06-22T10:00:39;11.10;;;8.10;;
51525;SDS011;37611;51.794;21.590;2023-06-22T10:04:49;8.90;;;7.40;;
51525;SDS011;37611;51.794;21.590;2023-06-22T10:09:02;8.50;;;7.10;;
51525;SDS011;37611;51.794;21.590;2023-06-22T10:13:22;6.30;;;5.30;;
51525;SDS011;37611;51.794;21.590;2023-06-22T10:17:24;8.10;;;5.30;;
51525;SDS011;37611;51.794;21.590;2023-06-22T10:21:29;4.90;;;4.30;;
51525;SDS011;37611;51.794;21.590;2023-06-22T10:25:31;5.10;;;4.60;;
51525;SDS011;37611;51.794;21.590;2023-06-22T10:29:33;5.70;;;4.20;;
51525;SDS011;37611;51.794;21.590;2023-06-22T10:33:35;6.00;;;4.30;;
51525;SDS011;37611;51.794;21.590;2023-06-22T10:37:37;6.50;;;4.00;;
51525;SDS011;37611;51.794;21.590;2023-06-22T10:41:39;4.10;;;3.70;;
51525;SDS011;37611;51.794;21.590;2023-06-22T10:45:50;4.10;;;3.80;;
51525;SDS011;37611;51.794;21.590;2023-06-22T10:49:52;6.50;;;4.40;;
51525;SDS011;37611;51.794;21.590;2023-06-22T10:53:57;5.00;;;3.50;;
51525;SDS011;37611;51.794;21.590;2023-06-22T10:57:59;6.30;;;3.30;;
51525;SDS011;37611;51.794;21.590;2023-06-22T11:02:01;3.20;;;2.90;;
51525;SDS011;37611;51.794;21.590;2023-06-22T11:06:12;4.50;;;3.40;;
51525;SDS011;37611;51.794;21.590;2023-06-22T11:10:16;3.20;;;2.70;;
51525;SDS011;37611;51.794;21.590;2023-06-22T11:14:18;3.60;;;3.10;;
51525;SDS011;37611;51.794;21.590;2023-06-22T11:18:20;5.80;;;2.80;;
51525;SDS011;37611;51.794;21.590;2023-06-22T11:22:22;6.00;;;3.10;;
51525;SDS011;37611;51.794;21.590;2023-06-22T11:26:24;3.30;;;2.50;;
51525;SDS011;37611;51.794;21.590;2023-06-22T11:30:28;5.10;;;2.60;;
51525;SDS011;37611;51.794;21.590;2023-06-22T11:34:31;4.00;;;2.90;;
51525;SDS011;37611;51.794;21.590;2023-06-22T11:38:33;8.10;;;3.40;;
51525;SDS011;37611;51.794;21.590;2023-06-22T11:42:35;4.40;;;2.80;;
51525;SDS011;37611;51.794;21.590;2023-06-22T11:46:37;2.70;;;2.40;;
51525;SDS011;37611;51.794;21.590;2023-06-22T11:50:44;8.80;;;6.80;;
51525;SDS011;37611;51.794;21.590;2023-06-22T11:54:46;4.40;;;3.20;;
51525;SDS011;37611;51.794;21.590;2023-06-22T11:58:47;4.00;;;2.60;;
51525;SDS011;37611;51.794;21.590;2023-06-22T12:02:50;4.00;;;3.00;;
51525;SDS011;37611;51.794;21.590;2023-06-22T12:06:54;3.60;;;2.40;;
51525;SDS011;37611;51.794;21.590;2023-06-22T12:10:56;3.80;;;3.00;;
51525;SDS011;37611;51.794;21.590;2023-06-22T12:15:08;4.00;;;2.90;;
51525;SDS011;37611;51.794;21.590;2023-06-22T12:19:11;5.10;;;3.20;;
51525;SDS011;37611;51.794;21.590;2023-06-22T12:23:15;5.50;;;2.90;;
51525;SDS011;37611;51.794;21.590;2023-06-22T12:27:17;5.60;;;2.80;;
51525;SDS011;37611;51.794;21.590;2023-06-22T12:31:25;4.00;;;2.70;;
51525;SDS011;37611;51.794;21.590;2023-06-22T12:35:30;4.10;;;2.50;;
51525;SDS011;37611;51.794;21.590;2023-06-22T12:39:32;5.40;;;2.60;;
51525;SDS011;37611;51.794;21.590;2023-06-22T12:43:34;3.20;;;2.70;;
51525;SDS011;37611;51.794;21.590;2023-06-22T12:47:35;5.30;;;2.60;;
51525;SDS011;37611;51.794;21.590;2023-06-22T12:51:40;2.80;;;2.50;;
51525;SDS011;37611;51.794;21.590;2023-06-22T12:55:46;7.50;;;2.50;;
51525;SDS011;37611;51.794;21.590;2023-06-22T12:59:47;3.80;;;2.70;;
51525;SDS011;37611;51.794;21.590;2023-06-22T13:03:50;4.10;;;3.00;;
51525;SDS011;37611;51.794;21.590;2023-06-22T13:07:51;4.30;;;3.00;;
51525;SDS011;37611;51.794;21.590;2023-06-22T13:11:53;3.50;;;2.70;;
51525;SDS011;37611;51.794;21.590;2023-06-22T13:15:55;4.50;;;2.90;;
51525;SDS011;37611;51.794;21.590;2023-06-22T13:19:57;3.30;;;2.60;;
51525;SDS011;37611;51.794;21.590;2023-06-22T13:23:59;4.30;;;2.70;;
51525;SDS011;37611;51.794;21.590;2023-06-22T13:28:01;3.70;;;2.70;;
51525;SDS011;37611;51.794;21.590;2023-06-22T13:32:03;4.60;;;3.00;;
51525;SDS011;37611;51.794;21.590;2023-06-22T13:36:05;4.20;;;2.70;;
51525;SDS011;37611;51.794;21.590;2023-06-22T13:40:08;4.60;;;2.80;;
51525;SDS011;37611;51.794;21.590;2023-06-22T13:44:10;3.60;;;3.00;;
51525;SDS011;37611;51.794;21.590;2023-06-22T13:48:11;5.40;;;3.30;;
51525;SDS011;37611;51.794;21.590;2023-06-22T13:52:13;4.30;;;2.70;;
51525;SDS011;37611;51.794;21.590;2023-06-22T13:56:15;3.50;;;3.10;;
51525;SDS011;37611;51.794;21.590;2023-06-22T14:00:17;7.70;;;3.30;;
51525;SDS011;37611;51.794;21.590;2023-06-22T14:04:19;3.80;;;3.40;;
51525;SDS011;37611;51.794;21.590;2023-06-22T14:08:21;5.90;;;3.30;;
51525;SDS011;37611;51.794;21.590;2023-06-22T14:12:24;4.30;;;3.10;;
51525;SDS011;37611;51.794;21.590;2023-06-22T14:16:26;3.90;;;2.90;;
51525;SDS011;37611;51.794;21.590;2023-06-22T14:20:28;5.50;;;3.50;;
51525;SDS011;37611;51.794;21.590;2023-06-22T14:24:30;3.80;;;3.40;;
51525;SDS011;37611;51.794;21.590;2023-06-22T14:28:32;3.50;;;3.10;;
51525;SDS011;37611;51.794;21.590;2023-06-22T14:32:33;3.50;;;3.20;;
51525;SDS011;37611;51.794;21.590;2023-06-22T14:36:35;3.90;;;3.60;;
51525;SDS011;37611;51.794;21.590;2023-06-22T14:40:37;6.20;;;3.60;;
51525;SDS011;37611;51.794;21.590;2023-06-22T14:44:39;5.20;;;3.30;;
51525;SDS011;37611;51.794;21.590;2023-06-22T14:48:41;4.60;;;3.40;;
51525;SDS011;37611;51.794;21.590;2023-06-22T14:52:43;5.50;;;3.40;;
51525;SDS011;37611;51.794;21.590;2023-06-22T14:56:45;4.10;;;3.70;;
51525;SDS011;37611;51.794;21.590;2023-06-22T15:00:49;6.40;;;3.70;;
51525;SDS011;37611;51.794;21.590;2023-06-22T15:04:51;8.10;;;3.50;;
51525;SDS011;37611;51.794;21.590;2023-06-22T15:08:54;4.10;;;3.70;;
51525;SDS011;37611;51.794;21.590;2023-06-22T15:12:56;3.60;;;3.00;;
51525;SDS011;37611;51.794;21.590;2023-06-22T15:16:58;6.70;;;3.80;;
51525;SDS011;37611;51.794;21.590;2023-06-22T15:20:59;5.70;;;4.20;;
51525;SDS011;37611;51.794;21.590;2023-06-22T15:25:03;4.90;;;3.70;;
51525;SDS011;37611;51.794;21.590;2023-06-22T15:29:05;7.60;;;3.50;;
51525;SDS011;37611;51.794;21.590;2023-06-22T15:33:07;4.40;;;3.50;;
51525;SDS011;37611;51.794;21.590;2023-06-22T15:37:08;8.50;;;3.70;;
51525;SDS011;37611;51.794;21.590;2023-06-22T15:41:10;7.70;;;3.50;;
51525;SDS011;37611;51.794;21.590;2023-06-22T15:45:12;3.80;;;3.40;;
51525;SDS011;37611;51.794;21.590;2023-06-22T15:53:21;7.40;;;3.80;;
51525;SDS011;37611;51.794;21.590;2023-06-22T15:57:26;4.10;;;3.60;;
51525;SDS011;37611;51.794;21.590;2023-06-22T16:01:29;4.40;;;3.60;;
51525;SDS011;37611;51.794;21.590;2023-06-22T16:05:31;6.00;;;4.00;;
51525;SDS011;37611;51.794;21.590;2023-06-22T16:09:36;6.80;;;3.80;;
51525;SDS011;37611;51.794;21.590;2023-06-22T16:13:39;7.20;;;4.50;;
51525;SDS011;37611;51.794;21.590;2023-06-22T16:17:41;8.00;;;4.10;;
51525;SDS011;37611;51.794;21.590;2023-06-22T16:21:44;8.20;;;3.80;;
51525;SDS011;37611;51.794;21.590;2023-06-22T16:25:56;5.90;;;3.70;;
51525;SDS011;37611;51.794;21.590;2023-06-22T16:30:07;7.60;;;4.50;;
51525;SDS011;37611;51.794;21.590;2023-06-22T16:34:09;5.50;;;3.80;;
51525;SDS011;37611;51.794;21.590;2023-06-22T16:38:11;4.70;;;3.80;;
51525;SDS011;37611;51.794;21.590;2023-06-22T16:42:15;7.30;;;4.20;;
51525;SDS011;37611;51.794;21.590;2023-06-22T16:46:26;6.10;;;3.80;;
51525;SDS011;37611;51.794;21.590;2023-06-22T16:50:28;4.40;;;3.70;;
51525;SDS011;37611;51.794;21.590;2023-06-22T16:54:39;6.40;;;3.90;;
51525;SDS011;37611;51.794;21.590;2023-06-22T16:58:42;6.40;;;3.80;;
51525;SDS011;37611;51.794;21.590;2023-06-22T17:02:51;4.40;;;3.80;;
51525;SDS011;37611;51.794;21.590;2023-06-22T17:06:58;4.60;;;3.90;;
51525;SDS011;37611;51.794;21.590;2023-06-22T17:11:05;6.80;;;3.90;;
51525;SDS011;37611;51.794;21.590;2023-06-22T17:15:10;6.60;;;4.00;;
51525;SDS011;37611;51.794;21.590;2023-06-22T17:19:13;6.00;;;4.20;;
51525;SDS011;37611;51.794;21.590;2023-06-22T17:23:20;4.80;;;3.80;;
51525;SDS011;37611;51.794;21.590;2023-06-22T17:27:28;5.30;;;3.70;;
51525;SDS011;37611;51.794;21.590;2023-06-22T17:31:49;3.80;;;3.30;;
51525;SDS011;37611;51.794;21.590;2023-06-22T17:35:56;4.80;;;3.40;;
51525;SDS011;37611;51.794;21.590;2023-06-22T17:40:09;4.20;;;3.50;;
51525;SDS011;37611;51.794;21.590;2023-06-22T17:44:25;6.70;;;4.30;;
51525;SDS011;37611;51.794;21.590;2023-06-22T17:54:04;4.70;;;3.90;;
51525;SDS011;37611;51.794;21.590;2023-06-22T17:58:36;6.30;;;4.20;;
51525;SDS011;37611;51.794;21.590;2023-06-22T18:07:10;6.20;;;4.70;;
51525;SDS011;37611;51.794;21.590;2023-06-22T18:16:14;5.30;;;3.90;;
51525;SDS011;37611;51.794;21.590;2023-06-22T18:24:56;15.60;;;5.60;;
51525;SDS011;37611;51.794;21.590;2023-06-22T18:33:22;12.60;;;5.90;;
51525;SDS011;37611;51.794;21.590;2023-06-22T18:37:53;9.80;;;5.50;;
51525;SDS011;37611;51.794;21.590;2023-06-22T18:51:33;16.90;;;7.80;;
51525;SDS011;37611;51.794;21.590;2023-06-22T18:56:14;10.00;;;7.40;;
51525;SDS011;37611;51.794;21.590;2023-06-22T19:00:45;13.50;;;8.90;;
51525;SDS011;37611;51.794;21.590;2023-06-22T19:24:51;9.90;;;7.10;;
51525;SDS011;37611;51.794;21.590;2023-06-22T19:33:36;14.00;;;8.20;;
51525;SDS011;37611;51.794;21.590;2023-06-22T19:43:15;12.10;;;8.90;;
51525;SDS011;37611;51.794;21.590;2023-06-22T19:57:15;13.50;;;9.90;;
51525;SDS011;37611;51.794;21.590;2023-06-22T20:02:20;31.20;;;24.10;;
51525;SDS011;37611;51.794;21.590;2023-06-22T20:06:55;41.20;;;28.50;;
51525;SDS011;37611;51.794;21.590;2023-06-22T20:35:19;22.40;;;17.50;;
51525;SDS011;37611;51.794;21.590;2023-06-22T20:39:50;25.80;;;15.40;;
51525;SDS011;37611;51.794;21.590;2023-06-22T22:09:36;16.20;;;14.50;;
51525;SDS011;37611;51.794;21.590;2023-06-22T22:14:28;17.00;;;15.20;;
51525;SDS011;37611;51.794;21.590;2023-06-22T22:33:36;23.40;;;18.70;;
51525;SDS011;37611;51.794;21.590;2023-06-22T23:12:42;20.60;;;13.70;;
51525;SDS011;37611;51.794;21.590;2023-06-22T23:22:06;14.00;;;12.70;;
51525;SDS011;37611;51.794;21.590;2023-06-22T23:31:37;14.40;;;13.00;;
